Time;durP1;ratioP1;P1;durP2;ratioP2;P2;SDS_P1;SDS_P2;PMS_P1;PMS_P2;Temp;Humidity;BMP_temperature;BMP_pressure;BME280_temperature;BME280_humidity;BME280_pressure;Samples;Min_cycle;Max_cycle;Signal;HPM_P1;HPM_P2
2023/03/05 00:01:34;;;;;;;6.37;1.97;;;7.30;94.70;;;;;;5093364;28;20509;-58
2023/03/05 00:04:07;;;;;;;10.00;3.17;;;7.20;94.70;;;;;;5093182;28;20448;-58
2023/03/05 00:06:34;;;;;;;10.80;2.33;;;7.20;94.60;;;;;;5093271;28;20440;-58
2023/03/05 00:09:03;;;;;;;5.30;3.20;;;7.20;94.60;;;;;;5092855;28;20447;-58
2023/03/05 00:11:32;;;;;;;9.07;2.43;;;7.20;94.90;;;;;;5093170;28;20519;-58
2023/03/05 00:14:00;;;;;;;8.77;2.07;;;7.10;94.90;;;;;;5093310;28;20458;-57
2023/03/05 00:16:28;;;;;;;4.47;1.80;;;7.10;94.90;;;;;;5092851;28;21036;-57
2023/03/05 00:18:56;;;;;;;3.80;2.17;;;7.00;95.50;;;;;;5093244;28;20483;-57
2023/03/05 00:21:24;;;;;;;11.43;2.00;;;7.00;95.20;;;;;;5093069;28;20505;-57
2023/03/05 00:23:52;;;;;;;3.97;2.17;;;7.00;95.30;;;;;;5092633;28;20452;-57
2023/03/05 00:26:22;;;;;;;8.20;1.60;;;7.00;95.40;;;;;;5095368;28;20937;-57
2023/03/05 00:28:50;;;;;;;6.63;2.70;;;7.00;95.30;;;;;;5096721;28;20443;-57
2023/03/05 00:31:17;;;;;;;8.00;1.90;;;7.00;95.10;;;;;;5096491;28;20494;-58
2023/03/05 00:33:44;;;;;;;4.87;1.50;;;6.90;95.10;;;;;;5096683;28;20458;-58
2023/03/05 00:36:11;;;;;;;6.13;1.67;;;6.90;95.20;;;;;;5096894;28;20455;-58
2023/03/05 00:38:38;;;;;;;3.87;1.60;;;6.90;95.20;;;;;;5096573;28;20472;-58
2023/03/05 00:41:05;;;;;;;10.47;1.90;;;6.90;95.30;;;;;;5096454;28;20463;-58
2023/03/05 00:43:33;;;;;;;3.70;1.57;;;6.90;95.30;;;;;;5096538;28;20496;-58
2023/03/05 00:45:59;;;;;;;1.50;0.97;;;6.80;95.40;;;;;;5096246;28;21014;-58
2023/03/05 00:48:26;;;;;;;8.30;1.37;;;6.90;95.60;;;;;;5096005;28;20929;-58
2023/03/05 00:50:53;;;;;;;4.90;1.33;;;6.90;95.40;;;;;;5095922;28;20984;-59
2023/03/05 00:53:20;;;;;;;4.60;1.90;;;6.90;95.30;;;;;;5096193;28;20451;-58
2023/03/05 00:55:47;;;;;;;9.57;1.60;;;6.90;95.10;;;;;;5096256;28;20440;-58
2023/03/05 00:58:14;;;;;;;6.20;1.50;;;6.90;95.10;;;;;;5095850;28;21018;-58
2023/03/05 01:00:42;;;;;;;2.30;1.37;;;6.80;95.30;;;;;;5095741;28;21022;-58
2023/03/05 01:03:09;;;;;;;5.23;1.73;;;6.80;95.50;;;;;;5096153;28;20444;-57
2023/03/05 01:05:35;;;;;;;6.13;1.53;;;6.80;95.50;;;;;;5096055;28;20444;-58
2023/03/05 01:08:03;;;;;;;4.73;1.40;;;6.80;95.60;;;;;;5095987;28;20447;-57
2023/03/05 01:10:29;;;;;;;4.67;1.70;;;6.70;95.70;;;;;;5095661;28;20902;-57
2023/03/05 01:12:57;;;;;;;7.40;1.93;;;6.70;95.90;;;;;;5096009;28;20486;-58
2023/03/05 01:15:24;;;;;;;5.83;1.40;;;6.70;96.00;;;;;;5095850;28;20449;-57
2023/03/05 01:17:52;;;;;;;5.77;1.90;;;6.70;95.70;;;;;;5095666;28;20482;-57
2023/03/05 01:20:21;;;;;;;6.00;2.33;;;6.70;95.70;;;;;;5095755;28;20468;-58
2023/03/05 01:22:48;;;;;;;6.80;1.80;;;6.70;95.70;;;;;;5096514;28;20459;-58
2023/03/05 01:25:16;;;;;;;6.93;3.20;;;6.80;95.80;;;;;;5097143;28;20496;-58
2023/03/05 01:27:43;;;;;;;8.30;3.70;;;6.80;95.70;;;;;;5097519;28;20459;-58
2023/03/05 01:30:11;;;;;;;10.37;2.80;;;6.80;95.60;;;;;;5096392;28;20471;-58
2023/03/05 01:32:39;;;;;;;6.43;2.70;;;6.80;95.50;;;;;;5095558;28;20447;-58
2023/03/05 01:35:11;;;;;;;9.23;2.50;;;6.90;95.60;;;;;;5095462;28;20447;-59
2023/03/05 01:37:37;;;;;;;9.73;2.73;;;6.80;95.50;;;;;;5094513;28;20973;-58
2023/03/05 01:40:05;;;;;;;9.40;1.63;;;6.80;95.60;;;;;;5095093;28;20494;-58
2023/03/05 01:42:32;;;;;;;3.53;2.03;;;6.90;95.70;;;;;;5095340;28;20447;-58
2023/03/05 01:45:01;;;;;;;7.83;2.13;;;6.80;95.60;;;;;;5095326;28;20443;-58
2023/03/05 01:47:28;;;;;;;6.90;2.30;;;6.80;95.70;;;;;;5094986;28;20522;-58
2023/03/05 01:49:55;;;;;;;8.40;2.20;;;6.80;95.80;;;;;;5094807;28;20884;-58
2023/03/05 01:52:27;;;;;;;15.50;2.23;;;6.80;95.70;;;;;;5094803;28;20455;-58
2023/03/05 01:54:56;;;;;;;9.57;2.27;;;6.80;95.80;;;;;;5094835;28;20427;-58
2023/03/05 01:57:27;;;;;;;9.93;2.50;;;6.80;95.90;;;;;;5094980;28;20455;-58
2023/03/05 01:59:57;;;;;;;10.63;2.50;;;6.80;96.40;;;;;;5094603;28;20467;-58
2023/03/05 02:02:24;;;;;;;10.23;2.33;;;6.70;96.20;;;;;;5094930;28;20827;-58
2023/03/05 02:04:55;;;;;;;9.90;2.13;;;6.60;96.40;;;;;;5094826;28;20443;-58
2023/03/05 02:07:24;;;;;;;10.10;2.80;;;6.70;96.70;;;;;;5094782;28;20881;-58
2023/03/05 02:09:50;;;;;;;10.10;2.70;;;6.70;96.70;;;;;;5094466;28;20475;-58
2023/03/05 02:12:18;;;;;;;9.60;1.83;;;6.70;96.60;;;;;;5094311;28;20475;-57
2023/03/05 02:14:48;;;;;;;3.67;1.90;;;6.70;96.60;;;;;;5094696;28;20439;-58
2023/03/05 02:17:15;;;;;;;6.53;1.50;;;6.70;96.60;;;;;;5094712;28;20424;-58
2023/03/05 02:19:50;;;;;;;9.43;2.27;;;6.60;96.60;;;;;;5094227;28;20878;-58
2023/03/05 02:22:20;;;;;;;7.87;1.90;;;6.50;96.80;;;;;;5094557;28;20447;-58
2023/03/05 02:24:47;;;;;;;6.73;2.27;;;6.50;97.00;;;;;;5094289;28;20444;-58
2023/03/05 02:27:15;;;;;;;6.80;1.90;;;6.50;97.00;;;;;;5095220;28;20448;-58
2023/03/05 02:29:45;;;;;;;15.40;2.43;;;6.50;96.90;;;;;;5094353;28;20463;-58
2023/03/05 02:32:12;;;;;;;5.77;1.97;;;6.50;96.90;;;;;;5094327;28;20452;-58
2023/03/05 02:34:38;;;;;;;5.10;2.23;;;6.50;97.10;;;;;;5094031;28;20452;-58
2023/03/05 02:37:08;;;;;;;5.20;1.90;;;6.40;96.70;;;;;;5093776;28;20818;-58
2023/03/05 02:39:36;;;;;;;7.93;1.80;;;6.50;96.80;;;;;;5094072;28;20491;-58
2023/03/05 02:42:03;;;;;;;6.07;2.07;;;6.40;96.90;;;;;;5094186;28;20482;-57
2023/03/05 02:44:30;;;;;;;5.13;1.57;;;6.40;97.00;;;;;;5094201;28;20450;-57
2023/03/05 02:46:57;;;;;;;4.90;1.80;;;6.50;97.10;;;;;;5095049;28;20451;-57
2023/03/05 02:49:24;;;;;;;7.77;1.83;;;6.50;97.40;;;;;;5094598;28;20467;-57
2023/03/05 02:51:50;;;;;;;8.97;2.20;;;6.60;96.90;;;;;;5094733;28;20452;-56
2023/03/05 02:54:17;;;;;;;4.37;1.80;;;6.60;96.80;;;;;;5094407;28;20514;-57
2023/03/05 02:56:45;;;;;;;4.67;2.27;;;6.50;96.90;;;;;;5093810;28;20452;-57
2023/03/05 02:59:12;;;;;;;7.47;2.60;;;6.50;97.10;;;;;;5093981;28;20483;-58
2023/03/05 03:01:38;;;;;;;9.20;2.23;;;6.50;97.20;;;;;;5094015;28;20451;-58
2023/03/05 03:04:05;;;;;;;6.30;1.83;;;6.50;97.30;;;;;;5094016;28;20472;-57
2023/03/05 03:06:32;;;;;;;6.50;1.70;;;6.50;97.40;;;;;;5093862;28;20452;-58
2023/03/05 03:08:59;;;;;;;12.00;2.33;;;6.50;97.30;;;;;;5093688;28;20779;-58
2023/03/05 03:11:25;;;;;;;4.73;1.77;;;6.50;97.20;;;;;;5093869;28;20432;-58
2023/03/05 03:13:53;;;;;;;7.63;1.80;;;6.50;97.00;;;;;;5093819;28;20448;-57
2023/03/05 03:16:20;;;;;;;5.07;1.50;;;6.50;96.80;;;;;;5093780;28;20451;-58
2023/03/05 03:18:47;;;;;;;6.93;1.70;;;6.40;96.70;;;;;;5093633;28;20495;-58
2023/03/05 03:21:17;;;;;;;6.97;3.30;;;6.40;96.60;;;;;;5093249;28;20973;-58
2023/03/05 03:23:44;;;;;;;3.73;1.30;;;6.40;96.60;;;;;;5093296;28;20481;-57
2023/03/05 03:26:10;;;;;;;5.43;1.77;;;6.40;96.70;;;;;;5093225;28;20999;-58
2023/03/05 03:28:37;;;;;;;2.53;1.10;;;6.40;96.80;;;;;;5093263;28;20860;-58
2023/03/05 03:31:05;;;;;;;7.80;1.20;;;6.50;96.80;;;;;;5093715;28;20479;-58
2023/03/05 03:33:32;;;;;;;5.00;1.27;;;6.50;96.80;;;;;;5093567;28;20458;-58
2023/03/05 03:35:59;;;;;;;7.10;1.23;;;6.60;96.80;;;;;;5093421;28;20451;-58
2023/03/05 03:38:25;;;;;;;7.83;2.10;;;6.60;96.60;;;;;;5093372;28;20503;-58
2023/03/05 03:40:52;;;;;;;2.90;1.30;;;6.50;96.30;;;;;;5093326;28;20529;-58
2023/03/05 03:43:19;;;;;;;6.37;2.00;;;6.60;96.30;;;;;;5093927;28;20458;-58
2023/03/05 03:45:45;;;;;;;8.77;1.97;;;6.60;96.30;;;;;;5093067;28;20444;-57
2023/03/05 03:48:14;;;;;;;9.73;1.90;;;6.60;96.20;;;;;;5093015;28;20435;-57
2023/03/05 03:50:40;;;;;;;5.23;1.60;;;6.60;96.20;;;;;;5093256;28;20563;-57
2023/03/05 03:53:08;;;;;;;6.67;2.90;;;6.50;96.20;;;;;;5093282;28;20493;-58
2023/03/05 03:55:35;;;;;;;4.47;1.60;;;6.50;96.40;;;;;;5092997;28;20954;-58
2023/03/05 03:58:03;;;;;;;7.73;3.37;;;6.50;96.60;;;;;;5093382;28;20447;-58
2023/03/05 04:00:29;;;;;;;7.90;2.47;;;6.50;96.90;;;;;;5094704;28;20516;-57
2023/03/05 04:02:56;;;;;;;8.80;1.83;;;6.40;97.10;;;;;;5097300;28;20443;-58
2023/03/05 04:05:24;;;;;;;6.73;2.03;;;6.30;97.80;;;;;;5097203;28;20456;-57
2023/03/05 04:07:51;;;;;;;5.87;2.10;;;6.30;97.70;;;;;;5096870;28;20452;-58
2023/03/05 04:10:18;;;;;;;9.50;2.83;;;6.20;97.90;;;;;;5096796;28;20558;-57
2023/03/05 04:12:45;;;;;;;7.67;1.87;;;6.10;98.30;;;;;;5097078;28;20814;-57
2023/03/05 04:15:12;;;;;;;11.90;2.30;;;6.10;98.40;;;;;;5096767;28;20477;-57
2023/03/05 04:17:38;;;;;;;6.80;2.27;;;6.00;98.60;;;;;;5096995;28;20446;-57
2023/03/05 04:20:09;;;;;;;14.57;2.20;;;6.00;98.70;;;;;;5096860;28;20495;-57
2023/03/05 04:22:37;;;;;;;5.73;1.80;;;6.00;98.80;;;;;;5097640;28;20451;-57
2023/03/05 04:25:05;;;;;;;5.40;1.80;;;5.90;98.90;;;;;;5096503;28;20440;-58
2023/03/05 04:27:32;;;;;;;8.50;3.00;;;5.90;99.10;;;;;;5096865;28;20528;-58
2023/03/05 04:29:59;;;;;;;7.10;1.80;;;5.90;99.10;;;;;;5096720;28;20512;-57
2023/03/05 04:32:27;;;;;;;6.67;2.60;;;5.90;99.10;;;;;;5096754;28;20500;-57
2023/03/05 04:34:54;;;;;;;5.80;1.73;;;6.00;99.10;;;;;;5096732;28;20500;-57
2023/03/05 04:37:20;;;;;;;9.57;3.10;;;6.00;99.10;;;;;;5096619;28;20826;-57
2023/03/05 04:39:48;;;;;;;5.97;2.40;;;6.00;99.10;;;;;;5096501;28;20487;-57
2023/03/05 04:42:15;;;;;;;5.80;2.30;;;6.00;99.10;;;;;;5096525;28;20454;-57
2023/03/05 04:44:42;;;;;;;5.17;2.40;;;5.90;99.20;;;;;;5096447;28;20812;-57
2023/03/05 04:47:08;;;;;;;6.33;2.60;;;5.90;99.30;;;;;;5096090;28;20795;-57
2023/03/05 04:49:35;;;;;;;7.20;2.13;;;5.90;99.40;;;;;;5096409;28;20483;-57
2023/03/05 04:52:02;;;;;;;9.40;2.70;;;5.90;99.50;;;;;;5096288;28;20443;-57
2023/03/05 04:54:28;;;;;;;4.90;2.33;;;5.90;99.40;;;;;;5096042;28;20960;-57
2023/03/05 04:56:56;;;;;;;10.20;2.57;;;5.90;99.40;;;;;;5096272;28;20448;-57
2023/03/05 04:59:23;;;;;;;8.60;2.37;;;5.90;99.30;;;;;;5095747;28;21016;-57
2023/03/05 05:01:50;;;;;;;6.50;2.57;;;5.90;99.30;;;;;;5096112;28;20456;-56
2023/03/05 05:04:17;;;;;;;5.30;2.37;;;5.90;99.20;;;;;;5095696;28;20949;-56
2023/03/05 05:06:43;;;;;;;8.20;2.60;;;5.90;99.20;;;;;;5096191;28;20447;-57
2023/03/05 05:09:10;;;;;;;4.23;1.90;;;5.90;99.20;;;;;;5095825;28;20448;-57
2023/03/05 05:11:37;;;;;;;9.83;2.63;;;5.90;99.10;;;;;;5095169;28;20420;-57
2023/03/05 05:14:05;;;;;;;5.93;2.00;;;5.90;99.00;;;;;;5095977;28;20448;-57
2023/03/05 05:16:31;;;;;;;9.27;2.23;;;5.90;99.10;;;;;;5095977;28;20455;-57
2023/03/05 05:18:58;;;;;;;6.03;2.90;;;5.90;99.10;;;;;;5095890;28;20479;-57
2023/03/05 05:21:25;;;;;;;5.27;2.50;;;5.90;99.10;;;;;;5095871;28;20451;-57
2023/03/05 05:23:51;;;;;;;9.03;2.77;;;5.90;98.90;;;;;;5095892;28;20454;-57
2023/03/05 05:26:18;;;;;;;7.20;2.30;;;5.90;99.00;;;;;;5095696;28;20439;-57
2023/03/05 05:28:45;;;;;;;6.20;2.87;;;5.80;99.40;;;;;;5095494;28;20479;-57
2023/03/05 05:31:15;;;;;;;5.57;2.23;;;5.80;99.60;;;;;;5095567;28;20475;-57
2023/03/05 05:33:42;;;;;;;8.50;2.23;;;5.80;99.10;;;;;;5095550;28;20448;-58
2023/03/05 05:36:12;;;;;;;8.50;2.60;;;5.80;99.10;;;;;;5095458;28;20799;-57
2023/03/05 05:38:39;;;;;;;7.10;2.80;;;5.80;99.30;;;;;;5095156;28;20956;-58
2023/03/05 05:41:07;;;;;;;11.03;2.70;;;5.80;99.20;;;;;;5095419;28;20475;-58
2023/03/05 05:43:34;;;;;;;13.43;2.83;;;5.80;99.10;;;;;;5097348;28;20448;-58
2023/03/05 05:46:01;;;;;;;17.13;3.20;;;5.80;99.10;;;;;;5096974;28;20868;-58
2023/03/05 05:48:30;;;;;;;7.63;3.40;;;5.80;99.20;;;;;;5096792;28;20444;-58
2023/03/05 05:50:57;;;;;;;8.13;2.80;;;5.80;99.30;;;;;;5096187;28;20483;-58
2023/03/05 05:53:24;;;;;;;10.40;3.27;;;5.80;99.30;;;;;;5095654;28;20447;-58
2023/03/05 05:55:51;;;;;;;6.00;2.73;;;5.70;99.30;;;;;;5095277;28;20824;-58
2023/03/05 05:58:18;;;;;;;12.37;2.27;;;5.70;99.50;;;;;;5095635;28;20452;-58
2023/03/05 06:00:45;;;;;;;9.37;3.77;;;5.70;99.50;;;;;;5095289;28;20480;-58
2023/03/05 06:03:11;;;;;;;12.13;3.10;;;5.70;99.50;;;;;;5095196;28;20968;-58
2023/03/05 06:05:41;;;;;;;11.43;3.20;;;5.70;99.60;;;;;;5095254;28;20884;-58
2023/03/05 06:08:07;;;;;;;6.43;2.67;;;5.70;99.60;;;;;;5095092;28;20452;-57
2023/03/05 06:10:34;;;;;;;8.27;3.10;;;5.70;99.60;;;;;;5094902;28;20532;-58
2023/03/05 06:13:01;;;;;;;6.30;2.73;;;5.70;99.70;;;;;;5094993;28;20451;-58
2023/03/05 06:15:28;;;;;;;11.93;3.30;;;5.70;99.70;;;;;;5095161;28;20440;-58
2023/03/05 06:17:54;;;;;;;6.10;2.70;;;5.70;99.90;;;;;;5094962;28;20454;-58
2023/03/05 06:20:22;;;;;;;13.77;3.47;;;5.60;99.90;;;;;;5095093;28;20491;-58
2023/03/05 06:22:50;;;;;;;4.20;2.70;;;5.60;99.90;;;;;;5094907;28;20794;-58
2023/03/05 06:25:16;;;;;;;5.73;2.23;;;5.60;99.70;;;;;;5095100;28;20809;-58
2023/03/05 06:27:43;;;;;;;4.87;2.50;;;5.50;99.50;;;;;;5094396;28;20436;-58
2023/03/05 06:30:12;;;;;;;12.30;2.77;;;5.50;99.60;;;;;;5094201;28;20968;-58
2023/03/05 06:32:39;;;;;;;6.30;2.43;;;5.40;99.60;;;;;;5094596;28;20455;-58
2023/03/05 06:35:06;;;;;;;6.97;2.83;;;5.40;99.60;;;;;;5095065;28;20448;-57
2023/03/05 06:37:33;;;;;;;4.67;2.90;;;5.50;99.60;;;;;;5094328;28;20534;-58
2023/03/05 06:40:02;;;;;;;6.50;2.30;;;5.50;99.30;;;;;;5094117;28;20495;-58
2023/03/05 06:42:29;;;;;;;6.20;2.80;;;5.50;99.20;;;;;;5093987;28;20510;-58
2023/03/05 06:44:56;;;;;;;3.37;2.70;;;5.50;99.30;;;;;;5094187;28;20466;-58
2023/03/05 06:47:22;;;;;;;3.97;2.00;;;5.50;99.20;;;;;;5094323;28;20471;-58
2023/03/05 06:49:49;;;;;;;9.07;2.20;;;5.60;99.30;;;;;;5094185;28;20464;-58
2023/03/05 06:52:16;;;;;;;3.50;2.03;;;5.60;99.20;;;;;;5093782;28;20969;-58
2023/03/05 06:54:42;;;;;;;4.53;2.43;;;5.50;99.30;;;;;;5093903;28;20444;-57
2023/03/05 06:57:10;;;;;;;7.03;2.80;;;5.50;99.40;;;;;;5093990;28;20505;-58
2023/03/05 06:59:37;;;;;;;8.57;2.27;;;5.50;99.50;;;;;;5093890;28;20484;-58
2023/03/05 07:02:04;;;;;;;5.30;2.30;;;5.40;99.80;;;;;;5093986;28;20859;-58
2023/03/05 07:04:30;;;;;;;7.30;2.50;;;5.40;99.80;;;;;;5093500;28;20451;-57
2023/03/05 07:06:59;;;;;;;5.93;2.27;;;5.40;99.80;;;;;;5093485;28;20455;-58
2023/03/05 07:09:26;;;;;;;10.73;3.00;;;5.40;99.90;;;;;;5093522;28;20989;-58
2023/03/05 07:11:52;;;;;;;5.23;2.73;;;5.40;99.90;;;;;;5093841;28;20459;-58
2023/03/05 07:14:20;;;;;;;5.87;2.70;;;5.40;99.90;;;;;;5093765;28;20443;-58
2023/03/05 07:16:47;;;;;;;6.13;3.07;;;5.40;99.90;;;;;;5093674;28;20454;-58
2023/03/05 07:19:14;;;;;;;5.90;2.70;;;5.40;99.90;;;;;;5087807;28;21000;-57
2023/03/05 07:21:40;;;;;;;13.53;3.13;;;5.40;99.90;;;;;;5093243;28;20846;-57
2023/03/05 07:24:08;;;;;;;6.83;3.13;;;5.50;99.90;;;;;;5093629;28;20456;-57
2023/03/05 07:26:35;;;;;;;5.00;3.00;;;5.50;99.90;;;;;;5093412;28;20451;-58
2023/03/05 07:29:02;;;;;;;9.50;4.03;;;5.50;99.90;;;;;;5093165;28;20466;-57
2023/03/05 07:31:30;;;;;;;9.23;3.83;;;5.50;99.90;;;;;;5094397;28;20501;-58
2023/03/05 07:33:59;;;;;;;8.30;4.07;;;5.50;99.90;;;;;;5093411;28;20461;-58
2023/03/05 07:36:26;;;;;;;6.80;3.33;;;5.60;99.90;;;;;;5092798;28;20479;-58
2023/03/05 07:38:52;;;;;;;9.10;3.63;;;5.50;99.90;;;;;;5093474;28;20505;-58
2023/03/05 07:41:22;;;;;;;8.33;3.57;;;5.60;99.90;;;;;;5092926;28;20981;-57
2023/03/05 07:43:50;;;;;;;6.30;3.40;;;5.70;99.90;;;;;;5093064;28;20969;-57
2023/03/05 07:46:20;;;;;;;9.73;4.50;;;5.70;99.90;;;;;;5093022;28;20459;-58
2023/03/05 07:48:48;;;;;;;8.27;4.40;;;5.70;99.90;;;;;;5093295;28;20443;-57
2023/03/05 07:51:16;;;;;;;10.30;3.90;;;5.70;99.90;;;;;;5093171;28;20493;-58
2023/03/05 07:53:44;;;;;;;7.30;3.83;;;5.80;99.90;;;;;;5093261;28;20447;-57
2023/03/05 07:56:11;;;;;;;12.33;4.20;;;5.80;99.90;;;;;;5093113;28;20448;-57
2023/03/05 07:58:38;;;;;;;7.47;4.30;;;5.80;99.90;;;;;;5093289;28;20454;-57
2023/03/05 08:01:12;;;;;;;11.77;5.57;;;5.80;99.90;;;;;;5093158;28;20510;-58
2023/03/05 08:03:39;;;;;;;6.70;3.70;;;5.80;99.90;;;;;;5093194;28;20561;-57
2023/03/05 08:06:08;;;;;;;12.63;4.90;;;5.90;99.90;;;;;;5093098;28;20509;-58
2023/03/05 08:08:35;;;;;;;9.73;4.90;;;6.00;99.90;;;;;;5093242;28;20468;-58
2023/03/05 08:11:04;;;;;;;9.60;3.60;;;6.00;99.90;;;;;;5092731;28;20468;-58
2023/03/05 08:13:31;;;;;;;6.60;4.33;;;5.90;99.90;;;;;;5093226;28;20863;-57
2023/03/05 08:15:58;;;;;;;9.47;4.40;;;5.80;99.90;;;;;;5093090;28;20454;-58
2023/03/05 08:18:25;;;;;;;11.90;4.97;;;5.80;99.90;;;;;;5092945;28;20448;-57
2023/03/05 08:20:51;;;;;;;15.37;5.23;;;5.80;99.90;;;;;;5077368;28;20480;-58
2023/03/05 08:23:19;;;;;;;8.47;4.80;;;5.80;99.90;;;;;;5072856;28;20502;-58
2023/03/05 08:25:46;;;;;;;10.50;5.40;;;5.80;99.90;;;;;;5085972;28;20448;-57
2023/03/05 08:28:13;;;;;;;10.07;5.17;;;5.80;99.90;;;;;;5092497;28;20451;-57
2023/03/05 08:30:40;;;;;;;15.03;6.40;;;5.80;99.90;;;;;;5092515;28;21003;-58
2023/03/05 08:33:07;;;;;;;9.90;5.40;;;5.80;99.90;;;;;;5094243;28;20820;-57
2023/03/05 08:35:34;;;;;;;12.43;5.30;;;5.90;99.90;;;;;;5094206;28;20448;-57
2023/03/05 08:38:00;;;;;;;22.53;6.90;;;6.00;99.90;;;;;;5093643;28;20454;-57
2023/03/05 08:40:28;;;;;;;9.77;4.63;;;6.10;99.90;;;;;;5093239;28;20487;-58
2023/03/05 08:42:55;;;;;;;8.37;4.53;;;6.20;99.90;;;;;;5093197;28;20455;-58
2023/03/05 08:45:22;;;;;;;10.90;4.83;;;6.30;99.90;;;;;;5092604;28;20991;-58
2023/03/05 08:47:49;;;;;;;8.47;4.20;;;6.40;99.90;;;;;;5094663;28;20816;-58
2023/03/05 08:50:16;;;;;;;7.10;4.40;;;6.60;99.90;;;;;;5096473;28;20517;-58
2023/03/05 08:52:43;;;;;;;4.93;4.43;;;6.60;99.20;;;;;;5096291;28;20451;-58
2023/03/05 08:55:11;;;;;;;10.33;4.60;;;6.70;98.90;;;;;;5096356;28;20455;-58
2023/03/05 08:57:39;;;;;;;8.37;4.70;;;6.70;98.40;;;;;;5096429;28;20443;-58
2023/03/05 09:00:09;;;;;;;9.37;5.40;;;6.80;98.90;;;;;;5095863;28;20988;-58
2023/03/05 09:02:35;;;;;;;7.87;4.70;;;6.80;99.00;;;;;;5096228;28;20464;-58
2023/03/05 09:05:02;;;;;;;14.17;7.23;;;6.80;98.40;;;;;;5096105;28;20447;-58
2023/03/05 09:07:29;;;;;;;9.50;6.53;;;6.70;98.40;;;;;;5096047;28;20452;-57
2023/03/05 09:09:56;;;;;;;8.47;6.07;;;6.60;99.50;;;;;;5096171;28;20498;-58
2023/03/05 09:12:22;;;;;;;10.07;6.27;;;6.70;99.70;;;;;;5095951;28;20463;-58
2023/03/05 09:14:53;;;;;;;10.50;6.90;;;6.70;99.80;;;;;;5096050;28;20440;-58
2023/03/05 09:17:20;;;;;;;9.30;6.30;;;6.70;99.50;;;;;;5096053;28;20840;-57
2023/03/05 09:19:47;;;;;;;11.97;6.27;;;6.70;99.20;;;;;;5095685;28;20468;-58
2023/03/05 09:22:14;;;;;;;13.63;7.60;;;6.60;99.40;;;;;;5095922;28;20443;-58
2023/03/05 09:24:42;;;;;;;8.83;7.43;;;6.50;99.90;;;;;;5095871;28;20454;-57
2023/03/05 09:27:09;;;;;;;11.17;7.23;;;6.40;99.90;;;;;;5095772;28;20448;-57
2023/03/05 09:29:35;;;;;;;11.03;9.43;;;6.40;99.90;;;;;;5095698;28;20476;-58
2023/03/05 09:32:03;;;;;;;14.00;8.10;;;6.50;99.90;;;;;;5095630;28;20497;-58
2023/03/05 09:34:30;;;;;;;9.53;8.20;;;6.50;99.90;;;;;;5095562;28;20452;-57
2023/03/05 09:36:57;;;;;;;10.00;8.13;;;6.60;99.90;;;;;;5095572;28;20860;-58
2023/03/05 09:39:23;;;;;;;13.53;8.40;;;6.70;99.90;;;;;;5095354;28;20459;-56
2023/03/05 09:42:15;;;;;;;13.13;9.87;;;6.60;99.90;;;;;;5095231;28;20475;-58
2023/03/05 09:44:49;;;;;;;17.17;10.70;;;6.60;99.90;;;;;;5095411;28;20443;-58
2023/03/05 09:47:35;;;;;;;14.30;12.57;;;6.40;99.90;;;;;;5094822;28;20489;-57
2023/03/05 09:50:10;;;;;;;14.20;10.90;;;6.40;99.90;;;;;;5095169;28;20482;-58
2023/03/05 09:52:42;;;;;;;14.50;10.50;;;6.30;99.90;;;;;;5094778;28;20794;-58
2023/03/05 09:55:13;;;;;;;20.07;11.63;;;6.20;99.90;;;;;;5095224;28;20782;-58
2023/03/05 09:57:44;;;;;;;11.80;10.57;;;6.20;99.90;;;;;;5094700;28;20443;-58
2023/03/05 10:00:24;;;;;;;14.90;11.70;;;6.20;99.90;;;;;;5095009;28;20537;-59
2023/03/05 10:02:57;;;;;;;11.93;10.73;;;6.30;99.90;;;;;;5095177;28;20515;-59
2023/03/05 10:05:29;;;;;;;13.30;10.87;;;6.30;99.90;;;;;;5095100;28;20455;-59
2023/03/05 10:08:00;;;;;;;10.53;9.43;;;6.10;99.90;;;;;;5094516;28;20779;-58
2023/03/05 10:10:36;;;;;;;10.47;8.90;;;6.10;99.90;;;;;;5094732;28;20480;-58
2023/03/05 10:13:11;;;;;;;10.30;8.50;;;6.10;99.90;;;;;;5094668;28;20935;-58
2023/03/05 10:15:49;;;;;;;13.73;8.70;;;6.00;99.90;;;;;;5094520;28;20441;-58
2023/03/05 10:18:28;;;;;;;9.77;8.60;;;6.10;99.90;;;;;;5094871;28;20523;-58
2023/03/05 10:20:58;;;;;;;8.60;7.70;;;6.10;99.90;;;;;;5094631;28;20483;-58
2023/03/05 10:23:34;;;;;;;9.33;8.43;;;6.20;99.90;;;;;;5094684;28;20489;-58
2023/03/05 10:26:21;;;;;;;8.67;7.77;;;6.40;99.90;;;;;;5094430;28;20889;-58
2023/03/05 10:28:57;;;;;;;10.07;7.20;;;6.60;99.90;;;;;;5094402;28;20424;-58
2023/03/05 10:31:36;;;;;;;9.43;7.70;;;6.80;99.90;;;;;;5094307;28;20987;-58
2023/03/05 10:34:34;;;;;;;10.80;7.70;;;6.90;99.90;;;;;;5094530;28;20523;-58
2023/03/05 10:37:21;;;;;;;11.47;8.00;;;6.80;99.90;;;;;;5063568;28;20471;-58
2023/03/05 10:40:09;;;;;;;9.77;6.77;;;6.70;99.90;;;;;;5095125;28;20851;-58
2023/03/05 10:42:47;;;;;;;9.60;8.07;;;6.60;99.90;;;;;;5094176;28;20897;-58
2023/03/05 10:45:17;;;;;;;9.43;7.50;;;6.50;99.90;;;;;;5094212;28;20436;-58
2023/03/05 10:47:49;;;;;;;9.60;8.47;;;6.40;99.90;;;;;;5094351;28;20425;-58
2023/03/05 10:50:21;;;;;;;14.47;10.20;;;6.40;99.90;;;;;;5093939;28;20486;-57
2023/03/05 10:52:52;;;;;;;12.47;9.87;;;6.40;99.90;;;;;;5094317;28;20431;-58
2023/03/05 10:55:21;;;;;;;12.53;9.57;;;6.50;99.90;;;;;;5094249;28;20435;-58
2023/03/05 10:57:48;;;;;;;9.83;8.77;;;6.50;99.90;;;;;;5093822;28;20444;-58
2023/03/05 11:00:20;;;;;;;8.87;7.93;;;6.70;99.90;;;;;;5093968;28;20478;-58
2023/03/05 11:02:55;;;;;;;9.20;7.93;;;6.80;99.90;;;;;;5093789;28;20961;-58
2023/03/05 11:05:45;;;;;;;7.17;6.47;;;7.00;99.90;;;;;;5094122;28;20432;-58
2023/03/05 11:08:34;;;;;;;7.80;6.23;;;7.10;99.90;;;;;;5093850;28;20776;-58
2023/03/05 11:11:14;;;;;;;6.17;5.20;;;7.20;99.40;;;;;;5092863;28;20483;-58
2023/03/05 11:13:52;;;;;;;5.93;4.70;;;7.40;98.60;;;;;;5094065;28;20488;-58
2023/03/05 11:16:23;;;;;;;4.97;4.10;;;7.50;97.50;;;;;;5094139;28;20807;-57
2023/03/05 11:18:50;;;;;;;5.67;4.43;;;7.40;97.10;;;;;;5094083;28;20440;-58
2023/03/05 11:21:26;;;;;;;4.83;3.50;;;7.40;97.60;;;;;;5093722;28;20483;-57
2023/03/05 11:24:12;;;;;;;5.80;4.03;;;7.60;97.20;;;;;;5094634;28;20431;-58
2023/03/05 11:26:46;;;;;;;3.87;3.57;;;7.70;96.60;;;;;;5094475;28;20427;-58
2023/03/05 11:29:19;;;;;;;5.90;5.27;;;7.70;95.80;;;;;;5095902;28;20455;-57
2023/03/05 11:31:45;;;;;;;5.60;4.70;;;7.80;95.90;;;;;;5094834;28;20424;-57
2023/03/05 11:34:23;;;;;;;4.10;3.70;;;7.90;95.90;;;;;;5094962;28;20450;-58
2023/03/05 11:37:05;;;;;;;4.83;3.80;;;8.10;95.30;;;;;;5095279;28;20439;-58
2023/03/05 11:39:37;;;;;;;7.23;4.47;;;8.30;94.50;;;;;;5095259;28;20467;-58
2023/03/05 11:42:06;;;;;;;3.50;2.97;;;8.50;94.30;;;;;;5094136;28;20468;-58
2023/03/05 11:44:40;;;;;;;3.00;2.70;;;8.60;93.50;;;;;;5093996;28;20451;-59
2023/03/05 11:47:26;;;;;;;8.67;3.20;;;8.50;92.10;;;;;;5094261;28;20443;-58
2023/03/05 11:50:00;;;;;;;3.20;2.60;;;8.60;92.00;;;;;;5095226;28;20463;-58
2023/03/05 11:52:32;;;;;;;3.63;2.83;;;8.60;92.00;;;;;;5095410;28;20453;-58
2023/03/05 11:55:05;;;;;;;3.40;3.00;;;8.70;92.40;;;;;;5095633;28;20428;-58
2023/03/05 11:57:39;;;;;;;7.73;3.27;;;8.70;92.60;;;;;;5093552;28;20422;-58
2023/03/05 12:00:11;;;;;;;6.83;3.03;;;8.80;92.00;;;;;;5093469;28;20477;-58
2023/03/05 12:02:38;;;;;;;5.67;3.50;;;8.80;92.20;;;;;;5093289;28;20540;-58
2023/03/05 12:05:07;;;;;;;2.93;2.30;;;8.80;92.30;;;;;;5093254;28;20447;-58
2023/03/05 12:07:39;;;;;;;4.17;2.77;;;8.80;92.00;;;;;;5093405;28;20823;-58
2023/03/05 12:10:14;;;;;;;2.87;2.67;;;8.80;91.20;;;;;;5092982;28;20475;-58
2023/03/05 12:12:47;;;;;;;3.47;3.17;;;8.80;91.50;;;;;;5094428;28;20432;-58
2023/03/05 12:15:47;;;;;;;4.53;2.50;;;8.90;91.00;;;;;;5093211;28;20428;-57
2023/03/05 12:18:24;;;;;;;4.23;3.40;;;9.00;90.60;;;;;;5031601;28;20419;-58
2023/03/05 12:21:00;;;;;;;5.33;3.00;;;9.10;91.00;;;;;;5084494;28;20487;-58
2023/03/05 12:23:28;;;;;;;3.10;2.80;;;9.10;90.70;;;;;;5097065;28;20430;-58
2023/03/05 12:25:58;;;;;;;3.33;3.03;;;9.20;90.50;;;;;;5096624;28;20452;-58
2023/03/05 12:28:57;;;;;;;3.23;2.93;;;9.20;90.60;;;;;;5096438;28;20945;-58
2023/03/05 12:31:38;;;;;;;3.50;2.43;;;9.20;90.30;;;;;;5034339;28;20430;-58
2023/03/05 12:34:37;;;;;;;4.00;3.10;;;9.20;90.00;;;;;;5089066;28;20462;-57
2023/03/05 12:37:04;;;;;;;8.17;4.43;;;9.20;90.40;;;;;;5096779;28;20467;-58
2023/03/05 12:39:51;;;;;;;11.03;5.03;;;9.20;90.90;;;;;;5096663;28;20467;-58
2023/03/05 12:42:47;;;;;;;7.40;5.07;;;9.20;90.70;;;;;;5096552;28;20506;-58
2023/03/05 12:45:39;;;;;;;6.13;4.80;;;9.10;90.60;;;;;;5096469;28;20455;-58
2023/03/05 12:48:35;;;;;;;5.13;4.43;;;9.10;90.60;;;;;;5081275;28;20839;-59
2023/03/05 12:51:02;;;;;;;6.50;4.67;;;9.00;90.40;;;;;;5096400;28;20491;-58
2023/03/05 12:53:29;;;;;;;5.80;5.10;;;9.00;90.20;;;;;;5096398;28;20443;-59
2023/03/05 12:56:02;;;;;;;5.03;4.50;;;9.00;90.40;;;;;;5096309;28;20595;-59
2023/03/05 12:58:37;;;;;;;8.77;4.80;;;9.20;90.80;;;;;;5096275;28;20428;-59
2023/03/05 13:01:13;;;;;;;6.47;4.83;;;9.40;90.20;;;;;;5096026;28;20494;-58
2023/03/05 13:03:45;;;;;;;7.50;5.60;;;9.50;89.80;;;;;;5095911;28;20435;-58
2023/03/05 13:06:24;;;;;;;8.07;6.03;;;9.30;90.10;;;;;;5096757;28;20436;-57
2023/03/05 13:08:56;;;;;;;8.30;5.40;;;9.10;90.70;;;;;;5095832;28;20929;-57